createdAt,value
2023-04-10T00:03:43.333Z,69.92
2023-04-10T00:08:40.944Z,70.03
2023-04-10T00:13:34.275Z,70.04
2023-04-10T00:18:27.440Z,70.43
2023-04-10T00:23:20.614Z,69.91
2023-04-10T00:28:16.642Z,69.90
2023-04-10T00:33:09.889Z,70.92
2023-04-10T00:38:03.208Z,71.93
2023-04-10T00:42:56.530Z,71.79
2023-04-10T00:47:51.304Z,72.15
2023-04-10T00:52:44.644Z,72.24
2023-04-10T00:57:37.930Z,73.20
2023-04-10T01:02:32.466Z,73.06
2023-04-10T01:07:38.456Z,73.24
2023-04-10T01:12:48.652Z,72.93
2023-04-10T01:17:47.619Z,73.47
2023-04-10T01:23:11.364Z,74.33
2023-04-10T01:28:26.324Z,74.59
2023-04-10T01:33:24.097Z,74.59
2023-04-10T01:38:19.248Z,74.53
2023-04-10T01:43:14.513Z,75.41
2023-04-10T01:48:13.778Z,75.12
2023-04-10T01:53:09.333Z,76.16
2023-04-10T01:58:02.793Z,76.56
2023-04-10T02:02:58.680Z,76.33
2023-04-10T02:08:03.590Z,77.28
2023-04-10T02:13:02.476Z,77.61
2023-04-10T02:17:57.776Z,77.83
2023-04-10T02:22:53.389Z,78.08
2023-04-10T02:27:46.642Z,77.78
2023-04-10T02:32:42.124Z,77.63
2023-04-10T02:37:36.313Z,77.60
2023-04-10T02:42:30.785Z,77.98
2023-04-10T02:47:27.335Z,78.11
2023-04-10T02:52:22.065Z,77.84
2023-04-10T02:57:15.704Z,77.50
2023-04-10T03:02:10.561Z,77.88
2023-04-10T03:07:06.319Z,77.60
2023-04-10T03:12:05.563Z,78.43
2023-04-10T03:16:58.937Z,78.72
2023-04-10T03:21:52.521Z,78.88
2023-04-10T03:26:45.921Z,79.47
2023-04-10T03:31:40.826Z,79.56
2023-04-10T03:36:35.293Z,79.38
2023-04-10T03:41:28.523Z,79.93
2023-04-10T03:46:22.905Z,80.05
2023-04-10T03:51:18.943Z,79.72
2023-04-10T03:56:12.435Z,79.62
2023-04-10T04:01:07.001Z,79.09
2023-04-10T04:06:11.716Z,80.04
2023-04-10T04:11:21.653Z,80.04
2023-04-10T04:16:28.345Z,79.90
2023-04-10T04:21:35.982Z,80.26
2023-04-10T04:26:50.912Z,79.65
2023-04-10T04:32:13.722Z,79.97
2023-04-10T04:37:25.818Z,79.18
2023-04-10T04:42:44.745Z,78.61
2023-04-10T04:47:49.430Z,78.60
2023-04-10T04:52:55.732Z,78.83
2023-04-10T04:58:09.173Z,78.45
2023-04-10T05:03:14.320Z,78.57
2023-04-10T05:08:39.724Z,79.00
2023-04-10T05:13:51.884Z,78.24
2023-04-10T05:19:14.617Z,78.30
2023-04-10T05:24:21.719Z,76.53
2023-04-10T05:29:36.318Z,75.69
2023-04-10T05:34:49.779Z,75.09
2023-04-10T05:39:58.061Z,74.69
2023-04-10T05:45:10.972Z,73.08
2023-04-10T05:50:13.279Z,72.72
2023-04-10T05:55:38.898Z,72.83
2023-04-10T06:01:02.790Z,71.33
2023-04-10T06:06:16.569Z,69.41
2023-04-10T06:11:09.896Z,68.17
2023-04-10T06:16:05.617Z,68.54
2023-04-10T06:21:02.114Z,66.92
2023-04-10T06:25:58.569Z,66.55
2023-04-10T06:30:52.335Z,65.24
2023-04-10T06:35:47.503Z,65.69
2023-04-10T06:40:42.139Z,65.39
2023-04-10T06:45:35.467Z,65.13
2023-04-10T06:50:33.297Z,65.37
2023-04-10T06:55:28.187Z,66.37
2023-04-10T07:00:22.232Z,66.82
2023-04-10T07:05:16.083Z,66.54
2023-04-10T07:10:10.417Z,65.61
2023-04-10T07:15:05.628Z,64.61
2023-04-10T07:20:02.071Z,65.30
2023-04-10T07:24:55.220Z,65.59
2023-04-10T07:29:48.437Z,64.81
2023-04-10T07:34:46.111Z,64.33
2023-04-10T07:39:39.678Z,62.98
2023-04-10T07:44:32.967Z,62.68
2023-04-10T07:49:26.488Z,61.36
2023-04-10T07:54:21.385Z,60.55
2023-04-10T07:59:14.638Z,59.80
2023-04-10T08:04:09.601Z,60.58
2023-04-10T08:09:02.963Z,60.02
2023-04-10T08:13:58.712Z,59.62
2023-04-10T08:18:52.726Z,58.55
2023-04-10T08:23:47.202Z,59.25
2023-04-10T08:28:40.422Z,59.61
2023-04-10T08:33:35.105Z,58.33
2023-04-10T08:38:31.035Z,56.00
2023-04-10T08:43:24.248Z,55.55
2023-04-10T08:48:19.849Z,52.22
2023-04-10T08:53:16.651Z,49.99
2023-04-10T08:58:11.473Z,45.56
2023-04-10T09:03:08.560Z,46.24
2023-04-10T09:08:02.036Z,44.80
2023-04-10T09:12:59.679Z,43.37
2023-04-10T09:17:58.931Z,44.62
2023-04-10T09:22:52.293Z,45.38
2023-04-10T09:27:45.465Z,42.93
2023-04-10T09:32:42.422Z,42.12
2023-04-10T09:37:36.454Z,42.90
2023-04-10T09:42:34.748Z,42.39
2023-04-10T09:47:28.460Z,41.69
2023-04-10T09:52:26.459Z,42.25
2023-04-10T09:57:21.433Z,43.13
2023-04-10T10:02:17.068Z,42.83
2023-04-10T10:07:10.871Z,42.47
2023-04-10T10:12:08.670Z,42.28
2023-04-10T10:17:10.496Z,42.84
2023-04-10T10:22:04.416Z,42.64
2023-04-10T10:27:04.539Z,42.03
2023-04-10T10:32:07.914Z,40.89
2023-04-10T10:37:01.923Z,40.93
2023-04-10T10:42:03.631Z,41.81
2023-04-10T10:47:09.026Z,39.16
2023-04-10T10:52:05.387Z,36.82
2023-04-10T10:57:01.844Z,36.99
2023-04-10T11:02:18.283Z,35.81
2023-04-10T11:07:11.792Z,35.05
2023-04-10T11:12:07.869Z,35.88
2023-04-10T11:17:01.049Z,33.56
2023-04-10T11:22:07.638Z,36.14
2023-04-10T11:27:01.742Z,35.71
2023-04-10T11:31:58.252Z,34.87
2023-04-10T11:36:53.488Z,35.34
2023-04-10T11:41:49.721Z,32.60
2023-04-10T11:46:44.406Z,32.11
2023-04-10T11:51:38.152Z,33.86
2023-04-10T11:56:31.305Z,33.24
2023-04-10T12:01:34.896Z,33.32
2023-04-10T12:06:28.794Z,33.13
2023-04-10T12:11:23.655Z,31.88
2023-04-10T12:16:16.886Z,31.58
2023-04-10T12:21:11.834Z,31.54
2023-04-10T12:26:13.345Z,31.93
2023-04-10T12:31:07.496Z,33.72
2023-04-10T12:36:00.732Z,32.08
2023-04-10T12:41:02.240Z,33.02
2023-04-10T12:45:57.063Z,33.55
2023-04-10T12:50:54.222Z,32.53
2023-04-10T12:56:03.544Z,32.45
2023-04-10T13:00:57.531Z,32.16
2023-04-10T13:05:51.036Z,31.17
2023-04-10T13:10:44.249Z,32.30
2023-04-10T13:15:39.107Z,33.24
2023-04-10T13:20:33.117Z,32.09
2023-04-10T13:25:27.832Z,34.63
2023-04-10T13:30:21.057Z,34.06
2023-04-10T13:35:18.783Z,33.02
2023-04-10T13:40:12.449Z,34.79
2023-04-10T13:45:07.471Z,33.34
2023-04-10T13:50:00.660Z,32.45
2023-04-10T13:54:55.165Z,31.75
2023-04-10T13:59:48.385Z,31.36
2023-04-10T14:04:42.720Z,31.20
2023-04-10T14:09:36.057Z,31.75
2023-04-10T14:14:30.850Z,32.18
2023-04-10T14:19:24.100Z,32.56
2023-04-10T14:24:17.359Z,32.54
2023-04-10T14:29:10.980Z,32.88
2023-04-10T14:34:05.515Z,33.11
2023-04-10T14:38:58.771Z,33.79
2023-04-10T14:43:55.165Z,34.88
2023-04-10T14:48:48.963Z,35.08
2023-04-10T14:53:45.836Z,34.70
2023-04-10T14:58:38.937Z,35.03
2023-04-10T15:03:32.124Z,35.68
2023-04-10T15:08:25.431Z,35.87
2023-04-10T15:13:20.077Z,36.84
2023-04-10T15:18:13.485Z,38.26
2023-04-10T15:23:06.660Z,38.39
2023-04-10T15:28:01.376Z,36.66
2023-04-10T15:32:56.650Z,38.25
2023-04-10T15:37:49.877Z,38.29
2023-04-10T15:42:44.988Z,39.56
2023-04-10T15:47:38.224Z,39.30
2023-04-10T15:52:33.963Z,40.21
2023-04-10T15:57:27.090Z,39.50
2023-04-10T16:02:20.565Z,40.56
2023-04-10T16:07:13.845Z,40.05
2023-04-10T16:12:08.553Z,39.48
2023-04-10T16:17:02.509Z,40.50
2023-04-10T16:21:57.243Z,41.27
2023-04-10T16:26:50.554Z,41.72
2023-04-10T16:31:45.202Z,42.12
2023-04-10T16:36:38.439Z,43.08
2023-04-10T16:41:31.884Z,43.15
2023-04-10T16:46:27.407Z,43.34
2023-04-10T16:51:22.276Z,44.10
2023-04-10T16:56:16.073Z,43.85
2023-04-10T17:01:17.992Z,44.33
2023-04-10T17:06:11.666Z,45.52
2023-04-10T17:11:18.800Z,46.00
2023-04-10T17:16:15.366Z,45.55
2023-04-10T17:21:12.666Z,46.12
2023-04-10T17:26:08.378Z,46.40
2023-04-10T17:31:03.153Z,45.89
2023-04-10T17:35:59.207Z,47.05
2023-04-10T17:40:52.577Z,47.49
2023-04-10T17:45:49.664Z,47.99
2023-04-10T17:50:44.986Z,49.18
2023-04-10T17:55:40.040Z,49.96
2023-04-10T18:00:35.039Z,49.92
2023-04-10T18:05:30.585Z,50.90
2023-04-10T18:10:25.585Z,50.97
2023-04-10T18:15:18.970Z,51.84
2023-04-10T18:20:12.713Z,52.26
2023-04-10T18:25:11.652Z,52.91
2023-04-10T18:30:06.711Z,53.73
2023-04-10T18:35:03.695Z,53.84
2023-04-10T18:40:00.961Z,53.99
2023-04-10T18:45:01.008Z,54.82
2023-04-10T18:49:54.405Z,55.15
2023-04-10T18:54:47.746Z,54.55
2023-04-10T18:59:43.446Z,55.06
2023-04-10T19:04:38.265Z,54.79
2023-04-10T19:09:31.617Z,55.63
2023-04-10T19:14:25.048Z,55.08
2023-04-10T19:19:20.859Z,55.53
2023-04-10T19:24:16.651Z,55.53
2023-04-10T19:29:11.222Z,55.54
2023-04-10T19:34:09.304Z,55.88
2023-04-10T19:39:02.576Z,56.20
2023-04-10T19:43:58.544Z,56.50
2023-04-10T19:48:54.866Z,56.74
2023-04-10T19:53:51.588Z,57.62
2023-04-10T19:58:46.854Z,58.67
2023-04-10T20:03:46.077Z,58.12
2023-04-10T20:08:44.629Z,59.31
2023-04-10T20:13:42.690Z,60.04
2023-04-10T20:18:39.846Z,60.42
2023-04-10T20:23:40.217Z,60.30
2023-04-10T20:28:33.299Z,60.68
2023-04-10T20:33:26.802Z,61.76
2023-04-10T20:38:20.400Z,63.24
2023-04-10T20:43:15.312Z,64.52
2023-04-10T20:48:10.044Z,64.41
2023-04-10T20:53:03.670Z,64.75
2023-04-10T20:57:58.213Z,65.64
2023-04-10T21:02:53.374Z,65.78
2023-04-10T21:07:46.988Z,66.01
2023-04-10T21:12:43.448Z,66.25
2023-04-10T21:17:37.052Z,66.50
2023-04-10T21:22:31.721Z,66.75
2023-04-10T21:27:25.415Z,66.48
2023-04-10T21:32:18.786Z,66.54
2023-04-10T21:37:12.072Z,66.59
2023-04-10T21:42:09.338Z,66.64
2023-04-10T21:47:02.678Z,67.59
2023-04-10T21:51:57.734Z,66.99
2023-04-10T21:56:54.125Z,67.39
2023-04-10T22:01:48.980Z,67.90
2023-04-10T22:06:45.548Z,67.60
2023-04-10T22:11:41.904Z,68.46
2023-04-10T22:16:35.300Z,68.69
2023-04-10T22:21:31.796Z,68.99
2023-04-10T22:26:25.126Z,69.63
2023-04-10T22:31:20.346Z,70.12
2023-04-10T22:36:14.261Z,70.74
2023-04-10T22:41:10.970Z,70.54
2023-04-10T22:46:04.224Z,71.48
2023-04-10T22:50:57.465Z,71.47
2023-04-10T22:55:50.635Z,72.17
2023-04-10T23:00:45.261Z,72.43
2023-04-10T23:05:38.512Z,72.59
2023-04-10T23:10:33.811Z,73.60
2023-04-10T23:15:27.179Z,73.89
2023-04-10T23:20:22.159Z,74.93
2023-04-10T23:25:16.222Z,74.88
2023-04-10T23:30:10.058Z,75.91
2023-04-10T23:35:03.270Z,76.95
2023-04-10T23:39:57.870Z,76.83
2023-04-10T23:44:51.164Z,77.65
2023-04-10T23:49:44.414Z,77.26
2023-04-10T23:54:37.598Z,77.53
2023-04-10T23:59:32.144Z,77.99
